sensor_id;sensor_type;location;lat;lon;timestamp;P1;durP1;ratioP1;P2;durP2;ratioP2
66946;SDS011;53853;51.982;5.928;2023-03-01T00:00:16;7.32;;;4.25;;
66946;SDS011;53853;51.982;5.928;2023-03-01T00:02:46;8.07;;;4.60;;
66946;SDS011;53853;51.982;5.928;2023-03-01T00:05:16;7.40;;;4.15;;
66946;SDS011;53853;51.982;5.928;2023-03-01T00:07:46;5.70;;;4.32;;
66946;SDS011;53853;51.982;5.928;2023-03-01T00:10:18;7.88;;;4.00;;
66946;SDS011;53853;51.982;5.928;2023-03-01T00:12:48;5.75;;;4.00;;
66946;SDS011;53853;51.982;5.928;2023-03-01T00:15:19;5.07;;;4.03;;
66946;SDS011;53853;51.982;5.928;2023-03-01T00:17:48;4.53;;;3.60;;
66946;SDS011;53853;51.982;5.928;2023-03-01T00:20:18;4.10;;;3.45;;
66946;SDS011;53853;51.982;5.928;2023-03-01T00:22:48;6.97;;;3.85;;
66946;SDS011;53853;51.982;5.928;2023-03-01T00:25:21;5.13;;;3.78;;
66946;SDS011;53853;51.982;5.928;2023-03-01T00:27:51;5.13;;;3.97;;
66946;SDS011;53853;51.982;5.928;2023-03-01T00:30:20;5.85;;;4.47;;
66946;SDS011;53853;51.982;5.928;2023-03-01T00:32:52;4.82;;;3.67;;
66946;SDS011;53853;51.982;5.928;2023-03-01T00:35:22;5.88;;;3.65;;
66946;SDS011;53853;51.982;5.928;2023-03-01T00:37:52;5.88;;;4.55;;
66946;SDS011;53853;51.982;5.928;2023-03-01T00:40:26;6.70;;;3.63;;
66946;SDS011;53853;51.982;5.928;2023-03-01T00:42:57;6.00;;;4.05;;
66946;SDS011;53853;51.982;5.928;2023-03-01T00:45:27;7.00;;;3.65;;
66946;SDS011;53853;51.982;5.928;2023-03-01T00:47:58;5.93;;;4.47;;
66946;SDS011;53853;51.982;5.928;2023-03-01T00:50:28;6.53;;;3.90;;
66946;SDS011;53853;51.982;5.928;2023-03-01T00:52:57;5.75;;;4.03;;
66946;SDS011;53853;51.982;5.928;2023-03-01T00:55:30;4.80;;;3.55;;
66946;SDS011;53853;51.982;5.928;2023-03-01T00:58:00;5.28;;;3.78;;
66946;SDS011;53853;51.982;5.928;2023-03-01T01:00:30;7.10;;;4.35;;
66946;SDS011;53853;51.982;5.928;2023-03-01T01:03:00;6.05;;;4.13;;
66946;SDS011;53853;51.982;5.928;2023-03-01T01:05:30;5.70;;;3.95;;
66946;SDS011;53853;51.982;5.928;2023-03-01T01:08:02;6.18;;;4.35;;
66946;SDS011;53853;51.982;5.928;2023-03-01T01:10:35;5.97;;;4.43;;
66946;SDS011;53853;51.982;5.928;2023-03-01T01:13:06;5.45;;;4.25;;
66946;SDS011;53853;51.982;5.928;2023-03-01T01:15:36;8.70;;;5.25;;
66946;SDS011;53853;51.982;5.928;2023-03-01T01:18:06;8.73;;;5.15;;
66946;SDS011;53853;51.982;5.928;2023-03-01T01:20:36;5.72;;;4.70;;
66946;SDS011;53853;51.982;5.928;2023-03-01T01:23:06;6.25;;;4.63;;
66946;SDS011;53853;51.982;5.928;2023-03-01T01:25:39;12.13;;;5.80;;
66946;SDS011;53853;51.982;5.928;2023-03-01T01:28:09;7.47;;;4.80;;
66946;SDS011;53853;51.982;5.928;2023-03-01T01:30:38;6.43;;;5.18;;
66946;SDS011;53853;51.982;5.928;2023-03-01T01:33:08;5.47;;;4.63;;
66946;SDS011;53853;51.982;5.928;2023-03-01T01:35:38;7.22;;;5.32;;
66946;SDS011;53853;51.982;5.928;2023-03-01T01:38:08;7.63;;;5.72;;
66946;SDS011;53853;51.982;5.928;2023-03-01T01:40:45;8.68;;;6.22;;
66946;SDS011;53853;51.982;5.928;2023-03-01T01:43:19;7.97;;;6.20;;
66946;SDS011;53853;51.982;5.928;2023-03-01T01:45:51;6.97;;;5.82;;
66946;SDS011;53853;51.982;5.928;2023-03-01T01:48:24;7.40;;;6.13;;
66946;SDS011;53853;51.982;5.928;2023-03-01T01:51:06;6.88;;;5.68;;
66946;SDS011;53853;51.982;5.928;2023-03-01T01:56:13;9.68;;;6.22;;
66946;SDS011;53853;51.982;5.928;2023-03-01T01:58:44;8.75;;;6.78;;
66946;SDS011;53853;51.982;5.928;2023-03-01T02:01:16;8.73;;;6.30;;
66946;SDS011;53853;51.982;5.928;2023-03-01T02:03:46;8.55;;;6.55;;
66946;SDS011;53853;51.982;5.928;2023-03-01T02:06:18;7.32;;;5.07;;
66946;SDS011;53853;51.982;5.928;2023-03-01T02:08:55;8.77;;;6.00;;
66946;SDS011;53853;51.982;5.928;2023-03-01T02:11:31;9.20;;;6.22;;
66946;SDS011;53853;51.982;5.928;2023-03-01T02:14:03;8.63;;;6.57;;
66946;SDS011;53853;51.982;5.928;2023-03-01T02:16:33;8.00;;;5.55;;
66946;SDS011;53853;51.982;5.928;2023-03-01T02:19:03;9.68;;;5.55;;
66946;SDS011;53853;51.982;5.928;2023-03-01T02:21:37;7.40;;;5.45;;
66946;SDS011;53853;51.982;5.928;2023-03-01T02:24:16;8.20;;;6.00;;
66946;SDS011;53853;51.982;5.928;2023-03-01T02:26:55;8.50;;;5.53;;
66946;SDS011;53853;51.982;5.928;2023-03-01T02:29:28;9.15;;;6.57;;
66946;SDS011;53853;51.982;5.928;2023-03-01T02:31:59;8.15;;;6.40;;
66946;SDS011;53853;51.982;5.928;2023-03-01T02:34:30;7.80;;;5.63;;
66946;SDS011;53853;51.982;5.928;2023-03-01T02:37:03;9.45;;;6.32;;
66946;SDS011;53853;51.982;5.928;2023-03-01T02:39:41;8.15;;;6.05;;
66946;SDS011;53853;51.982;5.928;2023-03-01T02:42:17;6.70;;;5.75;;
66946;SDS011;53853;51.982;5.928;2023-03-01T02:44:52;6.72;;;6.03;;
66946;SDS011;53853;51.982;5.928;2023-03-01T02:47:22;8.02;;;5.32;;
66946;SDS011;53853;51.982;5.928;2023-03-01T02:49:52;7.47;;;5.57;;
66946;SDS011;53853;51.982;5.928;2023-03-01T02:55:14;7.40;;;5.60;;
66946;SDS011;53853;51.982;5.928;2023-03-01T02:57:46;9.20;;;5.57;;
66946;SDS011;53853;51.982;5.928;2023-03-01T03:00:21;5.72;;;5.05;;
66946;SDS011;53853;51.982;5.928;2023-03-01T03:02:54;7.38;;;5.78;;
66946;SDS011;53853;51.982;5.928;2023-03-01T03:05:27;7.40;;;5.20;;
66946;SDS011;53853;51.982;5.928;2023-03-01T03:07:58;7.85;;;5.47;;
66946;SDS011;53853;51.982;5.928;2023-03-01T03:10:33;7.88;;;5.43;;
66946;SDS011;53853;51.982;5.928;2023-03-01T03:13:06;5.55;;;4.60;;
66946;SDS011;53853;51.982;5.928;2023-03-01T03:15:40;7.20;;;5.00;;
66946;SDS011;53853;51.982;5.928;2023-03-01T03:18:14;6.75;;;4.75;;
66946;SDS011;53853;51.982;5.928;2023-03-01T03:20:45;5.82;;;5.15;;
66946;SDS011;53853;51.982;5.928;2023-03-01T03:23:18;7.80;;;4.95;;
66946;SDS011;53853;51.982;5.928;2023-03-01T03:25:49;8.00;;;6.18;;
66946;SDS011;53853;51.982;5.928;2023-03-01T03:28:19;8.52;;;5.30;;
66946;SDS011;53853;51.982;5.928;2023-03-01T03:30:52;7.28;;;5.57;;
66946;SDS011;53853;51.982;5.928;2023-03-01T03:33:22;8.15;;;6.22;;
66946;SDS011;53853;51.982;5.928;2023-03-01T03:35:52;7.45;;;5.35;;
66946;SDS011;53853;51.982;5.928;2023-03-01T03:38:22;6.75;;;5.18;;
66946;SDS011;53853;51.982;5.928;2023-03-01T03:40:59;7.35;;;5.40;;
66946;SDS011;53853;51.982;5.928;2023-03-01T03:43:31;9.20;;;6.32;;
66946;SDS011;53853;51.982;5.928;2023-03-01T03:46:06;6.15;;;5.20;;
66946;SDS011;53853;51.982;5.928;2023-03-01T03:51:09;7.57;;;5.53;;
66946;SDS011;53853;51.982;5.928;2023-03-01T03:53:40;7.85;;;5.53;;
66946;SDS011;53853;51.982;5.928;2023-03-01T03:56:11;8.45;;;5.65;;
66946;SDS011;53853;51.982;5.928;2023-03-01T03:58:41;7.18;;;6.20;;
66946;SDS011;53853;51.982;5.928;2023-03-01T04:01:13;7.05;;;5.45;;
66946;SDS011;53853;51.982;5.928;2023-03-01T04:03:43;9.05;;;6.28;;
66946;SDS011;53853;51.982;5.928;2023-03-01T04:06:13;8.07;;;5.97;;
66946;SDS011;53853;51.982;5.928;2023-03-01T04:08:43;6.78;;;5.35;;
66946;SDS011;53853;51.982;5.928;2023-03-01T04:11:16;10.52;;;5.95;;
66946;SDS011;53853;51.982;5.928;2023-03-01T04:13:56;8.75;;;6.10;;
66946;SDS011;53853;51.982;5.928;2023-03-01T04:16:29;8.15;;;5.75;;
66946;SDS011;53853;51.982;5.928;2023-03-01T04:18:59;9.18;;;5.72;;
66946;SDS011;53853;51.982;5.928;2023-03-01T04:21:29;9.85;;;5.88;;
66946;SDS011;53853;51.982;5.928;2023-03-01T04:23:59;7.38;;;5.32;;
66946;SDS011;53853;51.982;5.928;2023-03-01T04:26:29;10.07;;;5.97;;
66946;SDS011;53853;51.982;5.928;2023-03-01T04:28:59;7.15;;;6.00;;
66946;SDS011;53853;51.982;5.928;2023-03-01T04:31:31;7.80;;;6.03;;
66946;SDS011;53853;51.982;5.928;2023-03-01T04:34:01;7.00;;;4.55;;
66946;SDS011;53853;51.982;5.928;2023-03-01T04:36:31;7.63;;;5.28;;
66946;SDS011;53853;51.982;5.928;2023-03-01T04:39:01;8.43;;;6.13;;
66946;SDS011;53853;51.982;5.928;2023-03-01T04:41:38;7.50;;;5.88;;
66946;SDS011;53853;51.982;5.928;2023-03-01T04:44:09;7.47;;;5.93;;
66946;SDS011;53853;51.982;5.928;2023-03-01T04:46:41;9.07;;;6.10;;
66946;SDS011;53853;51.982;5.928;2023-03-01T04:49:11;7.93;;;5.35;;
66946;SDS011;53853;51.982;5.928;2023-03-01T04:51:41;8.70;;;5.75;;
66946;SDS011;53853;51.982;5.928;2023-03-01T04:54:11;7.47;;;5.53;;
66946;SDS011;53853;51.982;5.928;2023-03-01T04:56:42;7.45;;;5.15;;
66946;SDS011;53853;51.982;5.928;2023-03-01T04:59:11;6.75;;;5.30;;
66946;SDS011;53853;51.982;5.928;2023-03-01T05:01:44;13.02;;;6.53;;
66946;SDS011;53853;51.982;5.928;2023-03-01T05:04:14;6.43;;;5.13;;
66946;SDS011;53853;51.982;5.928;2023-03-01T05:06:44;7.03;;;4.88;;
66946;SDS011;53853;51.982;5.928;2023-03-01T05:09:14;7.88;;;4.57;;
66946;SDS011;53853;51.982;5.928;2023-03-01T05:11:44;7.15;;;4.90;;
66946;SDS011;53853;51.982;5.928;2023-03-01T05:14:14;7.97;;;5.25;;
66946;SDS011;53853;51.982;5.928;2023-03-01T05:16:46;7.70;;;5.55;;
66946;SDS011;53853;51.982;5.928;2023-03-01T05:19:16;7.70;;;5.72;;
66946;SDS011;53853;51.982;5.928;2023-03-01T05:21:48;8.27;;;5.65;;
66946;SDS011;53853;51.982;5.928;2023-03-01T05:24:31;8.55;;;5.35;;
66946;SDS011;53853;51.982;5.928;2023-03-01T05:27:02;7.13;;;5.20;;
66946;SDS011;53853;51.982;5.928;2023-03-01T05:29:32;6.50;;;4.90;;
66946;SDS011;53853;51.982;5.928;2023-03-01T05:32:05;6.35;;;5.03;;
66946;SDS011;53853;51.982;5.928;2023-03-01T05:34:35;6.55;;;5.10;;
66946;SDS011;53853;51.982;5.928;2023-03-01T05:37:05;7.65;;;5.95;;
66946;SDS011;53853;51.982;5.928;2023-03-01T05:39:36;7.97;;;4.97;;
66946;SDS011;53853;51.982;5.928;2023-03-01T05:42:09;6.93;;;5.00;;
66946;SDS011;53853;51.982;5.928;2023-03-01T05:44:40;6.20;;;5.07;;
66946;SDS011;53853;51.982;5.928;2023-03-01T05:47:12;8.43;;;4.97;;
66946;SDS011;53853;51.982;5.928;2023-03-01T05:49:42;7.78;;;5.10;;
66946;SDS011;53853;51.982;5.928;2023-03-01T05:52:12;8.23;;;5.22;;
66946;SDS011;53853;51.982;5.928;2023-03-01T05:54:42;6.40;;;4.93;;
66946;SDS011;53853;51.982;5.928;2023-03-01T05:57:12;6.93;;;5.15;;
66946;SDS011;53853;51.982;5.928;2023-03-01T05:59:42;7.90;;;5.43;;
66946;SDS011;53853;51.982;5.928;2023-03-01T06:02:14;5.53;;;4.43;;
66946;SDS011;53853;51.982;5.928;2023-03-01T06:04:44;6.38;;;4.72;;
66946;SDS011;53853;51.982;5.928;2023-03-01T06:07:14;6.35;;;5.15;;
66946;SDS011;53853;51.982;5.928;2023-03-01T06:09:44;7.18;;;5.15;;
66946;SDS011;53853;51.982;5.928;2023-03-01T06:12:13;9.15;;;5.78;;
66946;SDS011;53853;51.982;5.928;2023-03-01T06:14:44;11.05;;;5.70;;
66946;SDS011;53853;51.982;5.928;2023-03-01T06:17:18;6.72;;;4.82;;
66946;SDS011;53853;51.982;5.928;2023-03-01T06:19:47;9.45;;;5.10;;
66946;SDS011;53853;51.982;5.928;2023-03-01T06:22:17;6.68;;;5.13;;
66946;SDS011;53853;51.982;5.928;2023-03-01T06:24:47;6.82;;;5.53;;
66946;SDS011;53853;51.982;5.928;2023-03-01T06:27:17;7.03;;;4.93;;
66946;SDS011;53853;51.982;5.928;2023-03-01T06:29:47;7.35;;;5.47;;
66946;SDS011;53853;51.982;5.928;2023-03-01T06:32:19;10.57;;;6.25;;
66946;SDS011;53853;51.982;5.928;2023-03-01T06:34:49;6.78;;;5.18;;
66946;SDS011;53853;51.982;5.928;2023-03-01T06:37:19;8.77;;;6.28;;
66946;SDS011;53853;51.982;5.928;2023-03-01T06:39:49;7.43;;;5.40;;
66946;SDS011;53853;51.982;5.928;2023-03-01T06:42:19;9.32;;;5.82;;
66946;SDS011;53853;51.982;5.928;2023-03-01T06:44:49;8.93;;;5.25;;
66946;SDS011;53853;51.982;5.928;2023-03-01T06:47:22;8.88;;;5.43;;
66946;SDS011;53853;51.982;5.928;2023-03-01T06:49:51;10.10;;;6.18;;
66946;SDS011;53853;51.982;5.928;2023-03-01T06:52:21;10.77;;;6.22;;
66946;SDS011;53853;51.982;5.928;2023-03-01T06:54:51;8.65;;;5.45;;
66946;SDS011;53853;51.982;5.928;2023-03-01T06:57:21;9.02;;;6.50;;
66946;SDS011;53853;51.982;5.928;2023-03-01T06:59:51;9.48;;;6.25;;
66946;SDS011;53853;51.982;5.928;2023-03-01T07:02:24;8.32;;;5.25;;
66946;SDS011;53853;51.982;5.928;2023-03-01T07:04:54;8.32;;;5.72;;
66946;SDS011;53853;51.982;5.928;2023-03-01T07:07:23;11.13;;;6.15;;
66946;SDS011;53853;51.982;5.928;2023-03-01T07:09:53;12.70;;;6.43;;
66946;SDS011;53853;51.982;5.928;2023-03-01T07:12:23;7.03;;;5.30;;
66946;SDS011;53853;51.982;5.928;2023-03-01T07:14:53;8.13;;;5.85;;
66946;SDS011;53853;51.982;5.928;2023-03-01T07:17:26;8.30;;;6.00;;
66946;SDS011;53853;51.982;5.928;2023-03-01T07:19:55;7.28;;;5.90;;
66946;SDS011;53853;51.982;5.928;2023-03-01T07:22:25;9.52;;;5.45;;
66946;SDS011;53853;51.982;5.928;2023-03-01T07:24:55;7.82;;;5.78;;
66946;SDS011;53853;51.982;5.928;2023-03-01T07:27:25;7.85;;;6.68;;
66946;SDS011;53853;51.982;5.928;2023-03-01T07:29:55;6.97;;;5.28;;
66946;SDS011;53853;51.982;5.928;2023-03-01T07:32:27;6.45;;;5.38;;
66946;SDS011;53853;51.982;5.928;2023-03-01T07:34:57;12.80;;;8.73;;
66946;SDS011;53853;51.982;5.928;2023-03-01T07:37:27;9.43;;;6.63;;
66946;SDS011;53853;51.982;5.928;2023-03-01T07:39:57;8.05;;;6.00;;
66946;SDS011;53853;51.982;5.928;2023-03-01T07:42:27;7.65;;;5.07;;
66946;SDS011;53853;51.982;5.928;2023-03-01T07:44:56;8.38;;;5.10;;
66946;SDS011;53853;51.982;5.928;2023-03-01T07:47:29;8.30;;;5.68;;
66946;SDS011;53853;51.982;5.928;2023-03-01T07:49:59;7.95;;;5.65;;
66946;SDS011;53853;51.982;5.928;2023-03-01T07:52:29;8.98;;;6.35;;
66946;SDS011;53853;51.982;5.928;2023-03-01T07:54:59;7.45;;;5.78;;
66946;SDS011;53853;51.982;5.928;2023-03-01T07:57:29;7.50;;;5.70;;
66946;SDS011;53853;51.982;5.928;2023-03-01T07:59:59;5.47;;;4.88;;
66946;SDS011;53853;51.982;5.928;2023-03-01T08:02:40;6.18;;;4.90;;
66946;SDS011;53853;51.982;5.928;2023-03-01T08:05:11;8.05;;;5.40;;
66946;SDS011;53853;51.982;5.928;2023-03-01T08:07:40;6.60;;;5.28;;
66946;SDS011;53853;51.982;5.928;2023-03-01T08:10:11;8.75;;;5.72;;
66946;SDS011;53853;51.982;5.928;2023-03-01T08:12:40;7.60;;;6.03;;
66946;SDS011;53853;51.982;5.928;2023-03-01T08:15:10;6.00;;;5.00;;
66946;SDS011;53853;51.982;5.928;2023-03-01T08:17:43;9.75;;;6.07;;
66946;SDS011;53853;51.982;5.928;2023-03-01T08:20:13;9.90;;;5.93;;
66946;SDS011;53853;51.982;5.928;2023-03-01T08:22:42;7.75;;;5.90;;
66946;SDS011;53853;51.982;5.928;2023-03-01T08:25:12;10.68;;;6.93;;
66946;SDS011;53853;51.982;5.928;2023-03-01T08:27:42;7.75;;;5.93;;
66946;SDS011;53853;51.982;5.928;2023-03-01T08:30:12;6.55;;;4.95;;
66946;SDS011;53853;51.982;5.928;2023-03-01T08:32:45;8.85;;;6.00;;
66946;SDS011;53853;51.982;5.928;2023-03-01T08:35:15;9.25;;;5.90;;
66946;SDS011;53853;51.982;5.928;2023-03-01T08:37:45;8.98;;;5.75;;
66946;SDS011;53853;51.982;5.928;2023-03-01T08:40:15;8.57;;;5.28;;
66946;SDS011;53853;51.982;5.928;2023-03-01T08:42:45;8.90;;;5.78;;
66946;SDS011;53853;51.982;5.928;2023-03-01T08:45:15;11.15;;;6.93;;
66946;SDS011;53853;51.982;5.928;2023-03-01T08:47:50;10.00;;;5.35;;
66946;SDS011;53853;51.982;5.928;2023-03-01T08:50:21;8.45;;;5.10;;
66946;SDS011;53853;51.982;5.928;2023-03-01T08:52:52;8.18;;;5.72;;
66946;SDS011;53853;51.982;5.928;2023-03-01T08:55:21;9.05;;;5.53;;
66946;SDS011;53853;51.982;5.928;2023-03-01T08:57:51;8.98;;;5.25;;
66946;SDS011;53853;51.982;5.928;2023-03-01T09:00:21;7.22;;;4.65;;
66946;SDS011;53853;51.982;5.928;2023-03-01T09:02:54;8.55;;;4.85;;
66946;SDS011;53853;51.982;5.928;2023-03-01T09:05:24;7.97;;;5.70;;
66946;SDS011;53853;51.982;5.928;2023-03-01T09:07:54;8.20;;;5.88;;
66946;SDS011;53853;51.982;5.928;2023-03-01T09:10:25;11.15;;;5.45;;
66946;SDS011;53853;51.982;5.928;2023-03-01T09:12:55;9.73;;;6.53;;
66946;SDS011;53853;51.982;5.928;2023-03-01T09:15:25;6.05;;;4.85;;
66946;SDS011;53853;51.982;5.928;2023-03-01T09:17:57;7.80;;;5.40;;
66946;SDS011;53853;51.982;5.928;2023-03-01T09:20:27;6.85;;;5.13;;
66946;SDS011;53853;51.982;5.928;2023-03-01T09:22:58;7.05;;;5.35;;
66946;SDS011;53853;51.982;5.928;2023-03-01T09:25:28;6.35;;;4.82;;
66946;SDS011;53853;51.982;5.928;2023-03-01T09:27:58;9.43;;;5.63;;
66946;SDS011;53853;51.982;5.928;2023-03-01T09:30:28;7.95;;;5.07;;
66946;SDS011;53853;51.982;5.928;2023-03-01T09:33:00;8.00;;;6.00;;
66946;SDS011;53853;51.982;5.928;2023-03-01T09:35:30;5.85;;;4.40;;
66946;SDS011;53853;51.982;5.928;2023-03-01T09:38:00;6.97;;;4.93;;
66946;SDS011;53853;51.982;5.928;2023-03-01T09:40:30;8.30;;;5.05;;
66946;SDS011;53853;51.982;5.928;2023-03-01T09:43:01;7.28;;;4.45;;
66946;SDS011;53853;51.982;5.928;2023-03-01T09:45:37;8.18;;;5.18;;
66946;SDS011;53853;51.982;5.928;2023-03-01T09:48:16;10.23;;;6.70;;
66946;SDS011;53853;51.982;5.928;2023-03-01T09:50:49;10.82;;;6.75;;
66946;SDS011;53853;51.982;5.928;2023-03-01T09:53:20;9.32;;;6.88;;
66946;SDS011;53853;51.982;5.928;2023-03-01T09:55:55;11.20;;;7.43;;
66946;SDS011;53853;51.982;5.928;2023-03-01T09:58:34;8.20;;;5.85;;
66946;SDS011;53853;51.982;5.928;2023-03-01T10:01:11;8.05;;;6.15;;
66946;SDS011;53853;51.982;5.928;2023-03-01T10:04:00;8.05;;;6.50;;
66946;SDS011;53853;51.982;5.928;2023-03-01T10:06:42;7.55;;;5.95;;
66946;SDS011;53853;51.982;5.928;2023-03-01T10:09:19;11.38;;;8.10;;
66946;SDS011;53853;51.982;5.928;2023-03-01T10:11:50;9.18;;;7.68;;
66946;SDS011;53853;51.982;5.928;2023-03-01T10:14:27;9.55;;;7.20;;
66946;SDS011;53853;51.982;5.928;2023-03-01T10:17:03;10.63;;;7.63;;
66946;SDS011;53853;51.982;5.928;2023-03-01T10:19:44;10.15;;;7.88;;
66946;SDS011;53853;51.982;5.928;2023-03-01T10:22:15;8.88;;;6.78;;
66946;SDS011;53853;51.982;5.928;2023-03-01T10:24:49;9.68;;;6.25;;
66946;SDS011;53853;51.982;5.928;2023-03-01T10:27:21;8.18;;;5.28;;
66946;SDS011;53853;51.982;5.928;2023-03-01T10:29:55;8.32;;;6.05;;
66946;SDS011;53853;51.982;5.928;2023-03-01T10:32:33;10.57;;;6.40;;
66946;SDS011;53853;51.982;5.928;2023-03-01T10:35:18;7.70;;;5.70;;
66946;SDS011;53853;51.982;5.928;2023-03-01T10:37:57;8.80;;;5.68;;
66946;SDS011;53853;51.982;5.928;2023-03-01T10:40:30;9.10;;;5.70;;
66946;SDS011;53853;51.982;5.928;2023-03-01T10:43:01;8.45;;;5.82;;
66946;SDS011;53853;51.982;5.928;2023-03-01T10:45:33;7.95;;;5.50;;
66946;SDS011;53853;51.982;5.928;2023-03-01T10:48:06;8.75;;;6.00;;
66946;SDS011;53853;51.982;5.928;2023-03-01T10:50:44;8.85;;;5.95;;
66946;SDS011;53853;51.982;5.928;2023-03-01T10:55:56;9.52;;;6.68;;
66946;SDS011;53853;51.982;5.928;2023-03-01T10:58:28;8.18;;;6.18;;
66946;SDS011;53853;51.982;5.928;2023-03-01T11:00:59;7.88;;;5.03;;
66946;SDS011;53853;51.982;5.928;2023-03-01T11:03:30;6.55;;;5.20;;
66946;SDS011;53853;51.982;5.928;2023-03-01T11:06:06;8.75;;;6.22;;
66946;SDS011;53853;51.982;5.928;2023-03-01T11:08:52;8.25;;;5.38;;
66946;SDS011;53853;51.982;5.928;2023-03-01T11:11:24;9.70;;;5.40;;
66946;SDS011;53853;51.982;5.928;2023-03-01T11:14:00;7.25;;;5.53;;
66946;SDS011;53853;51.982;5.928;2023-03-01T11:16:34;7.15;;;6.05;;
66946;SDS011;53853;51.982;5.928;2023-03-01T11:19:15;7.18;;;5.63;;
66946;SDS011;53853;51.982;5.928;2023-03-01T11:21:53;8.40;;;5.72;;
66946;SDS011;53853;51.982;5.928;2023-03-01T11:24:29;11.30;;;6.00;;
66946;SDS011;53853;51.982;5.928;2023-03-01T11:27:08;12.32;;;6.43;;
66946;SDS011;53853;51.982;5.928;2023-03-01T11:29:48;9.10;;;6.00;;
66946;SDS011;53853;51.982;5.928;2023-03-01T11:32:23;9.80;;;6.28;;
66946;SDS011;53853;51.982;5.928;2023-03-01T11:34:58;17.98;;;6.78;;
66946;SDS011;53853;51.982;5.928;2023-03-01T11:37:37;7.00;;;4.65;;
66946;SDS011;53853;51.982;5.928;2023-03-01T11:40:13;7.82;;;5.15;;
66946;SDS011;53853;51.982;5.928;2023-03-01T11:42:59;8.88;;;6.03;;
66946;SDS011;53853;51.982;5.928;2023-03-01T11:45:45;7.50;;;5.50;;
66946;SDS011;53853;51.982;5.928;2023-03-01T11:48:33;8.90;;;5.95;;
66946;SDS011;53853;51.982;5.928;2023-03-01T11:51:19;7.60;;;5.20;;
66946;SDS011;53853;51.982;5.928;2023-03-01T11:53:59;8.40;;;5.90;;
66946;SDS011;53853;51.982;5.928;2023-03-01T11:56:46;7.72;;;6.13;;
66946;SDS011;53853;51.982;5.928;2023-03-01T11:59:36;6.70;;;5.20;;
66946;SDS011;53853;51.982;5.928;2023-03-01T12:02:27;8.15;;;4.80;;
66946;SDS011;53853;51.982;5.928;2023-03-01T12:05:18;6.63;;;5.85;;
66946;SDS011;53853;51.982;5.928;2023-03-01T12:08:07;8.63;;;5.30;;
66946;SDS011;53853;51.982;5.928;2023-03-01T12:10:52;6.55;;;4.93;;
66946;SDS011;53853;51.982;5.928;2023-03-01T12:16:40;11.35;;;6.00;;
66946;SDS011;53853;51.982;5.928;2023-03-01T12:19:33;6.60;;;5.38;;
66946;SDS011;53853;51.982;5.928;2023-03-01T12:22:27;6.20;;;4.97;;
66946;SDS011;53853;51.982;5.928;2023-03-01T12:25:08;9.65;;;5.10;;
66946;SDS011;53853;51.982;5.928;2023-03-01T12:27:59;6.95;;;5.05;;
66946;SDS011;53853;51.982;5.928;2023-03-01T12:30:55;7.00;;;5.78;;
66946;SDS011;53853;51.982;5.928;2023-03-01T12:33:45;5.82;;;4.68;;
66946;SDS011;53853;51.982;5.928;2023-03-01T12:36:27;6.80;;;5.45;;
66946;SDS011;53853;51.982;5.928;2023-03-01T12:41:55;6.80;;;4.72;;
66946;SDS011;53853;51.982;5.928;2023-03-01T12:44:39;9.63;;;4.38;;
66946;SDS011;53853;51.982;5.928;2023-03-01T12:47:26;9.23;;;4.97;;
66946;SDS011;53853;51.982;5.928;2023-03-01T12:50:05;6.75;;;5.13;;
66946;SDS011;53853;51.982;5.928;2023-03-01T12:52:46;7.80;;;4.78;;
66946;SDS011;53853;51.982;5.928;2023-03-01T12:55:22;7.70;;;5.57;;
66946;SDS011;53853;51.982;5.928;2023-03-01T12:58:00;6.78;;;5.40;;
66946;SDS011;53853;51.982;5.928;2023-03-01T13:00:40;8.70;;;5.95;;
66946;SDS011;53853;51.982;5.928;2023-03-01T13:06:02;7.60;;;5.50;;
66946;SDS011;53853;51.982;5.928;2023-03-01T13:08:38;9.30;;;4.60;;
66946;SDS011;53853;51.982;5.928;2023-03-01T13:11:15;6.95;;;5.50;;
66946;SDS011;53853;51.982;5.928;2023-03-01T13:13:48;5.95;;;4.50;;
66946;SDS011;53853;51.982;5.928;2023-03-01T13:16:38;8.80;;;5.10;;
66946;SDS011;53853;51.982;5.928;2023-03-01T13:19:15;7.63;;;6.07;;
66946;SDS011;53853;51.982;5.928;2023-03-01T13:21:46;6.30;;;4.45;;
66946;SDS011;53853;51.982;5.928;2023-03-01T13:24:26;9.32;;;5.28;;
66946;SDS011;53853;51.982;5.928;2023-03-01T13:27:11;8.45;;;5.35;;
66946;SDS011;53853;51.982;5.928;2023-03-01T13:29:55;7.07;;;4.43;;
66946;SDS011;53853;51.982;5.928;2023-03-01T13:32:34;6.88;;;5.22;;
66946;SDS011;53853;51.982;5.928;2023-03-01T13:41:07;7.68;;;4.90;;
66946;SDS011;53853;51.982;5.928;2023-03-01T13:43:37;6.88;;;5.18;;
66946;SDS011;53853;51.982;5.928;2023-03-01T13:46:10;7.07;;;5.00;;
66946;SDS011;53853;51.982;5.928;2023-03-01T13:48:48;8.50;;;4.82;;
66946;SDS011;53853;51.982;5.928;2023-03-01T13:51:21;6.07;;;4.45;;
66946;SDS011;53853;51.982;5.928;2023-03-01T13:53:54;5.72;;;4.30;;
66946;SDS011;53853;51.982;5.928;2023-03-01T13:56:27;9.05;;;4.78;;
66946;SDS011;53853;51.982;5.928;2023-03-01T13:59:05;8.55;;;4.47;;
66946;SDS011;53853;51.982;5.928;2023-03-01T14:01:41;6.88;;;5.07;;
66946;SDS011;53853;51.982;5.928;2023-03-01T14:04:20;5.82;;;4.30;;
66946;SDS011;53853;51.982;5.928;2023-03-01T14:06:52;7.50;;;4.80;;
66946;SDS011;53853;51.982;5.928;2023-03-01T14:09:39;4.82;;;4.22;;
66946;SDS011;53853;51.982;5.928;2023-03-01T14:12:15;5.85;;;4.68;;
66946;SDS011;53853;51.982;5.928;2023-03-01T14:14:56;6.55;;;4.95;;
66946;SDS011;53853;51.982;5.928;2023-03-01T14:20:27;7.38;;;5.35;;
66946;SDS011;53853;51.982;5.928;2023-03-01T14:23:01;8.00;;;5.72;;
66946;SDS011;53853;51.982;5.928;2023-03-01T14:25:38;9.82;;;5.75;;
66946;SDS011;53853;51.982;5.928;2023-03-01T14:28:17;7.47;;;4.97;;
66946;SDS011;53853;51.982;5.928;2023-03-01T14:30:50;9.80;;;5.32;;
66946;SDS011;53853;51.982;5.928;2023-03-01T14:33:22;8.18;;;5.63;;
66946;SDS011;53853;51.982;5.928;2023-03-01T14:35:58;8.05;;;5.10;;
66946;SDS011;53853;51.982;5.928;2023-03-01T14:38:30;7.30;;;5.35;;
66946;SDS011;53853;51.982;5.928;2023-03-01T14:41:03;7.95;;;5.43;;
66946;SDS011;53853;51.982;5.928;2023-03-01T14:43:34;7.40;;;4.97;;
66946;SDS011;53853;51.982;5.928;2023-03-01T14:46:05;7.15;;;5.07;;
66946;SDS011;53853;51.982;5.928;2023-03-01T14:48:47;7.03;;;5.13;;
66946;SDS011;53853;51.982;5.928;2023-03-01T14:51:21;7.03;;;4.60;;
66946;SDS011;53853;51.982;5.928;2023-03-01T14:53:51;8.70;;;5.47;;
66946;SDS011;53853;51.982;5.928;2023-03-01T14:56:22;8.80;;;5.25;;
66946;SDS011;53853;51.982;5.928;2023-03-01T14:58:52;5.32;;;4.22;;
66946;SDS011;53853;51.982;5.928;2023-03-01T15:01:26;7.65;;;4.45;;
66946;SDS011;53853;51.982;5.928;2023-03-01T15:03:57;5.25;;;4.25;;
66946;SDS011;53853;51.982;5.928;2023-03-01T15:06:30;5.90;;;4.70;;
66946;SDS011;53853;51.982;5.928;2023-03-01T15:09:00;8.05;;;4.70;;
66946;SDS011;53853;51.982;5.928;2023-03-01T15:11:32;5.72;;;4.43;;
66946;SDS011;53853;51.982;5.928;2023-03-01T15:17:19;5.30;;;4.30;;
66946;SDS011;53853;51.982;5.928;2023-03-01T15:19:54;7.00;;;5.07;;
66946;SDS011;53853;51.982;5.928;2023-03-01T15:22:27;6.72;;;4.13;;
66946;SDS011;53853;51.982;5.928;2023-03-01T15:24:57;6.65;;;3.92;;
66946;SDS011;53853;51.982;5.928;2023-03-01T15:27:27;5.60;;;4.10;;
66946;SDS011;53853;51.982;5.928;2023-03-01T15:29:58;7.28;;;4.20;;
66946;SDS011;53853;51.982;5.928;2023-03-01T15:32:31;6.65;;;4.55;;
66946;SDS011;53853;51.982;5.928;2023-03-01T15:38:22;6.57;;;3.78;;
66946;SDS011;53853;51.982;5.928;2023-03-01T15:41:01;5.95;;;4.43;;
66946;SDS011;53853;51.982;5.928;2023-03-01T15:43:43;6.28;;;4.30;;
66946;SDS011;53853;51.982;5.928;2023-03-01T15:46:19;7.80;;;4.18;;
66946;SDS011;53853;51.982;5.928;2023-03-01T15:48:53;7.30;;;4.28;;
66946;SDS011;53853;51.982;5.928;2023-03-01T15:51:29;7.90;;;4.13;;
66946;SDS011;53853;51.982;5.928;2023-03-01T15:54:08;6.95;;;4.03;;
66946;SDS011;53853;51.982;5.928;2023-03-01T15:56:46;7.57;;;4.03;;